Trust77 — 9G-BD — position and weather

sailwx.info

Track history (hours):
 
Tides and Currents Weather Stations Pressure Air Temp Water Temp Dewpoint Dewpoint Depression Visibility Wind Speed Wind Dir Waves Ship Positions

Trust77

Last reported at 2018-May-23 12:52 UTC. Time now 2018-May-23 14:57 UTC.
Position N 05°07' W 000°22'.

Type: Fishing. MMSI: 627679000.

Date/timePositionNaut miles runAvg speedWind from/ knotsBaromVisibWave heightAir tempDewpointWater temp
2018-May-23 12:52N 05°07' W 000°22'3 9.4
2018-May-23 12:31N 05°09' W 000°25'7 9.2
2018-May-23 11:46N 05°13' W 000°31'2 9.2
2018-May-23 11:30N 05°14' W 000°33'  
2018-May-19 10:09N 05°18' W 000°23'2 8.1
2018-May-19 09:57N 05°20' W 000°23'4 8.1
2018-May-19 09:31N 05°23' W 000°23'2 3.4
2018-May-19 08:59N 05°25' W 000°22'1 0.7
2018-May-19 07:54N 05°24' W 000°22'0 0.7
2018-May-19 07:27N 05°24' W 000°22'1 1.5
2018-May-19 06:37N 05°24' W 000°24'8 3.6
2018-May-19 04:33N 05°20' W 000°30'0 0.0
2018-May-19 04:29N 05°20' W 000°30'0 0.0
2018-May-19 03:50N 05°20' W 000°30'  
2018-May-16 12:26N 05°16' W 000°25'3 8.0
2018-May-16 12:01N 05°19' W 000°24'4 8.0
2018-May-16 11:30N 05°23' W 000°23'2 4.5
2018-May-16 11:00N 05°25' W 000°22'0 1.0
2018-May-16 10:31N 05°25' W 000°23'1 2.1
2018-May-16 09:54N 05°24' W 000°23'1 1.8
2018-May-16 09:29N 05°25' W 000°23'  
Track history (hours):
 
Tides and Currents Weather Stations Pressure Air Temp Water Temp Dewpoint Dewpoint Depression Visibility Wind Speed Wind Dir Waves Ship Positions

Trust77

Last reported at 2018-May-23 12:52 UTC. Time now 2018-May-23 14:57 UTC.
Position N 05°07' W 000°22'.

Type: Fishing. MMSI: 627679000.

Date/timePositionNaut miles runAvg speedWind from/ knotsBaromVisibWave heightAir tempDewpointWater temp
2018-May-23 12:52N 05°07' W 000°22'3 9.4
2018-May-23 12:31N 05°09' W 000°25'7 9.2
2018-May-23 11:46N 05°13' W 000°31'2 9.2
2018-May-23 11:30N 05°14' W 000°33'  
2018-May-19 10:09N 05°18' W 000°23'2 8.1
2018-May-19 09:57N 05°20' W 000°23'4 8.1
2018-May-19 09:31N 05°23' W 000°23'2 3.4
2018-May-19 08:59N 05°25' W 000°22'1 0.7
2018-May-19 07:54N 05°24' W 000°22'0 0.7
2018-May-19 07:27N 05°24' W 000°22'1 1.5
2018-May-19 06:37N 05°24' W 000°24'8 3.6
2018-May-19 04:33N 05°20' W 000°30'0 0.0
2018-May-19 04:29N 05°20' W 000°30'0 0.0
2018-May-19 03:50N 05°20' W 000°30'  
2018-May-16 12:26N 05°16' W 000°25'3 8.0
2018-May-16 12:01N 05°19' W 000°24'4 8.0
2018-May-16 11:30N 05°23' W 000°23'2 4.5
2018-May-16 11:00N 05°25' W 000°22'0 1.0
2018-May-16 10:31N 05°25' W 000°23'1 2.1
2018-May-16 09:54N 05°24' W 000°23'1 1.8
2018-May-16 09:29N 05°25' W 000°23'  

Dump ship's entire track history